sensor_id;sensor_type;location;lat;lon;timestamp;pressure;altitude;pressure_sealevel;temperature;humidity
69909;BME280;57190;47.918;8.112;2024-02-16T00:00:59;90753.16;;;7.43;67.62
69909;BME280;57190;47.918;8.112;2024-02-16T00:03:25;90755.88;;;7.48;67.76
69909;BME280;57190;47.918;8.112;2024-02-16T00:05:51;90760.50;;;7.58;67.62
69909;BME280;57190;47.918;8.112;2024-02-16T00:08:20;90760.19;;;7.54;67.92
69909;BME280;57190;47.918;8.112;2024-02-16T00:10:46;90748.19;;;7.47;68.06
69909;BME280;57190;47.918;8.112;2024-02-16T00:13:12;90742.03;;;7.41;67.93
69909;BME280;57190;47.918;8.112;2024-02-16T00:15:38;90756.81;;;7.37;68.90
69909;BME280;57190;47.918;8.112;2024-02-16T00:18:06;90757.94;;;7.41;69.37
69909;BME280;57190;47.918;8.112;2024-02-16T00:20:32;90754.78;;;7.44;68.87
69909;BME280;57190;47.918;8.112;2024-02-16T00:22:58;90749.53;;;7.49;68.43
69909;BME280;57190;47.918;8.112;2024-02-16T00:25:25;90734.97;;;7.52;68.21
69909;BME280;57190;47.918;8.112;2024-02-16T00:27:50;90744.63;;;7.63;66.43
69909;BME280;57190;47.918;8.112;2024-02-16T00:30:18;90739.66;;;7.72;65.01
69909;BME280;57190;47.918;8.112;2024-02-16T00:32:44;90741.50;;;7.71;65.28
69909;BME280;57190;47.918;8.112;2024-02-16T00:35:19;90737.56;;;7.79;63.87
69909;BME280;57190;47.918;8.112;2024-02-16T00:37:45;90740.81;;;7.86;63.54
69909;BME280;57190;47.918;8.112;2024-02-16T00:40:13;90736.09;;;7.94;63.22
69909;BME280;57190;47.918;8.112;2024-02-16T00:42:39;90746.50;;;8.00;63.33
69909;BME280;57190;47.918;8.112;2024-02-16T00:45:05;90739.13;;;8.08;62.97
69909;BME280;57190;47.918;8.112;2024-02-16T00:47:31;90742.00;;;8.01;63.59
69909;BME280;57190;47.918;8.112;2024-02-16T00:49:56;90738.50;;;7.95;64.34
69909;BME280;57190;47.918;8.112;2024-02-16T00:52:22;90745.94;;;7.93;64.63
69909;BME280;57190;47.918;8.112;2024-02-16T00:54:49;90749.44;;;7.99;63.80
69909;BME280;57190;47.918;8.112;2024-02-16T00:57:14;90746.81;;;8.04;63.34
69909;BME280;57190;47.918;8.112;2024-02-16T00:59:40;90746.69;;;7.89;64.32
69909;BME280;57190;47.918;8.112;2024-02-16T01:02:06;90747.63;;;7.77;64.95
69909;BME280;57190;47.918;8.112;2024-02-16T01:04:32;90746.84;;;7.77;64.75
69909;BME280;57190;47.918;8.112;2024-02-16T01:06:58;90749.19;;;7.68;65.67
69909;BME280;57190;47.918;8.112;2024-02-16T01:09:24;90744.53;;;7.53;66.04
69909;BME280;57190;47.918;8.112;2024-02-16T01:11:49;90749.53;;;7.49;66.25
69909;BME280;57190;47.918;8.112;2024-02-16T01:14:15;90750.91;;;7.57;65.81
69909;BME280;57190;47.918;8.112;2024-02-16T01:16:40;90748.38;;;7.67;64.59
69909;BME280;57190;47.918;8.112;2024-02-16T01:19:06;90742.28;;;7.72;63.81
69909;BME280;57190;47.918;8.112;2024-02-16T01:21:33;90742.09;;;7.79;63.01
69909;BME280;57190;47.918;8.112;2024-02-16T01:23:58;90734.97;;;7.84;62.76
69909;BME280;57190;47.918;8.112;2024-02-16T01:26:27;90734.66;;;7.81;63.02
69909;BME280;57190;47.918;8.112;2024-02-16T01:28:53;90739.75;;;7.87;62.38
69909;BME280;57190;47.918;8.112;2024-02-16T01:31:19;90742.53;;;8.03;61.49
69909;BME280;57190;47.918;8.112;2024-02-16T01:33:44;90737.75;;;8.00;61.95
69909;BME280;57190;47.918;8.112;2024-02-16T01:36:10;90739.22;;;7.85;62.75
69909;BME280;57190;47.918;8.112;2024-02-16T01:38:35;90734.34;;;7.72;63.77
69909;BME280;57190;47.918;8.112;2024-02-16T01:41:01;90733.47;;;7.66;64.14
69909;BME280;57190;47.918;8.112;2024-02-16T01:43:27;90739.63;;;7.67;64.13
69909;BME280;57190;47.918;8.112;2024-02-16T01:45:52;90743.53;;;7.64;63.81
69909;BME280;57190;47.918;8.112;2024-02-16T01:48:18;90744.66;;;7.68;63.53
69909;BME280;57190;47.918;8.112;2024-02-16T01:50:44;90747.59;;;7.72;63.56
69909;BME280;57190;47.918;8.112;2024-02-16T01:53:12;90748.41;;;7.72;63.13
69909;BME280;57190;47.918;8.112;2024-02-16T01:55:38;90747.88;;;7.70;63.94
69909;BME280;57190;47.918;8.112;2024-02-16T01:58:04;90754.25;;;7.75;63.72
69909;BME280;57190;47.918;8.112;2024-02-16T02:00:30;90745.53;;;7.79;63.72
69909;BME280;57190;47.918;8.112;2024-02-16T02:02:55;90743.75;;;7.85;62.95
69909;BME280;57190;47.918;8.112;2024-02-16T02:05:22;90740.31;;;7.90;63.27
69909;BME280;57190;47.918;8.112;2024-02-16T02:07:48;90740.59;;;7.88;63.85
69909;BME280;57190;47.918;8.112;2024-02-16T02:10:14;90733.19;;;7.95;64.31
69909;BME280;57190;47.918;8.112;2024-02-16T02:12:40;90729.03;;;8.05;63.03
69909;BME280;57190;47.918;8.112;2024-02-16T02:15:08;90734.09;;;8.11;62.38
69909;BME280;57190;47.918;8.112;2024-02-16T02:17:34;90728.84;;;8.22;61.06
69909;BME280;57190;47.918;8.112;2024-02-16T02:20:00;90733.88;;;8.18;61.10
69909;BME280;57190;47.918;8.112;2024-02-16T02:22:26;90730.88;;;8.04;61.86
69909;BME280;57190;47.918;8.112;2024-02-16T02:24:52;90733.44;;;7.94;62.39
69909;BME280;57190;47.918;8.112;2024-02-16T02:27:19;90729.66;;;7.84;62.76
69909;BME280;57190;47.918;8.112;2024-02-16T02:29:44;90724.56;;;7.78;63.41
69909;BME280;57190;47.918;8.112;2024-02-16T02:32:10;90719.19;;;7.72;63.84
69909;BME280;57190;47.918;8.112;2024-02-16T02:34:36;90718.69;;;7.76;63.66
69909;BME280;57190;47.918;8.112;2024-02-16T02:37:02;90712.59;;;7.75;63.54
69909;BME280;57190;47.918;8.112;2024-02-16T02:39:29;90717.63;;;7.71;63.88
69909;BME280;57190;47.918;8.112;2024-02-16T02:41:55;90721.84;;;7.72;64.29
69909;BME280;57190;47.918;8.112;2024-02-16T02:44:20;90723.97;;;7.70;64.71
69909;BME280;57190;47.918;8.112;2024-02-16T02:46:46;90731.69;;;7.72;64.02
69909;BME280;57190;47.918;8.112;2024-02-16T02:49:12;90730.66;;;7.78;63.94
69909;BME280;57190;47.918;8.112;2024-02-16T02:51:37;90723.25;;;7.80;63.56
69909;BME280;57190;47.918;8.112;2024-02-16T02:54:03;90716.63;;;7.83;63.98
69909;BME280;57190;47.918;8.112;2024-02-16T02:56:28;90728.31;;;7.82;63.23
69909;BME280;57190;47.918;8.112;2024-02-16T02:58:54;90721.69;;;7.84;62.59
69909;BME280;57190;47.918;8.112;2024-02-16T03:01:19;90715.06;;;7.87;62.03
69909;BME280;57190;47.918;8.112;2024-02-16T03:03:45;90710.81;;;7.86;62.38
69909;BME280;57190;47.918;8.112;2024-02-16T03:06:12;90704.97;;;7.89;62.62
69909;BME280;57190;47.918;8.112;2024-02-16T03:08:37;90711.66;;;7.92;62.88
69909;BME280;57190;47.918;8.112;2024-02-16T03:11:03;90709.00;;;7.92;63.22
69909;BME280;57190;47.918;8.112;2024-02-16T03:13:29;90713.78;;;7.95;62.31
69909;BME280;57190;47.918;8.112;2024-02-16T03:15:56;90720.22;;;7.99;62.41
69909;BME280;57190;47.918;8.112;2024-02-16T03:18:22;90717.28;;;8.00;62.53
69909;BME280;57190;47.918;8.112;2024-02-16T03:20:47;90714.94;;;8.04;61.73
69909;BME280;57190;47.918;8.112;2024-02-16T03:23:15;90709.13;;;8.12;61.23
69909;BME280;57190;47.918;8.112;2024-02-16T03:25:41;90715.03;;;8.19;60.69
69909;BME280;57190;47.918;8.112;2024-02-16T03:28:12;90721.22;;;8.30;59.76
69909;BME280;57190;47.918;8.112;2024-02-16T03:30:38;90719.94;;;8.38;59.35
69909;BME280;57190;47.918;8.112;2024-02-16T03:33:04;90706.72;;;8.48;58.56
69909;BME280;57190;47.918;8.112;2024-02-16T03:35:30;90715.53;;;8.54;58.65
69909;BME280;57190;47.918;8.112;2024-02-16T03:37:56;90721.34;;;8.51;59.06
69909;BME280;57190;47.918;8.112;2024-02-16T03:40:23;90715.25;;;8.51;59.38
69909;BME280;57190;47.918;8.112;2024-02-16T03:42:50;90715.94;;;8.41;60.83
69909;BME280;57190;47.918;8.112;2024-02-16T03:45:16;90717.72;;;8.25;62.36
69909;BME280;57190;47.918;8.112;2024-02-16T03:47:42;90718.53;;;8.25;61.89
69909;BME280;57190;47.918;8.112;2024-02-16T03:50:10;90716.63;;;8.21;61.83
69909;BME280;57190;47.918;8.112;2024-02-16T03:52:36;90712.41;;;8.25;61.35
69909;BME280;57190;47.918;8.112;2024-02-16T03:55:05;90718.56;;;8.30;60.92
69909;BME280;57190;47.918;8.112;2024-02-16T03:57:30;90711.94;;;8.33;60.98
69909;BME280;57190;47.918;8.112;2024-02-16T03:59:57;90709.28;;;8.38;60.52
69909;BME280;57190;47.918;8.112;2024-02-16T04:02:22;90706.41;;;8.45;59.95
69909;BME280;57190;47.918;8.112;2024-02-16T04:04:48;90716.31;;;8.55;59.33
69909;BME280;57190;47.918;8.112;2024-02-16T04:07:15;90720.31;;;8.52;59.32
69909;BME280;57190;47.918;8.112;2024-02-16T04:09:41;90714.97;;;8.47;59.49
69909;BME280;57190;47.918;8.112;2024-02-16T04:12:07;90714.44;;;8.50;59.31
69909;BME280;57190;47.918;8.112;2024-02-16T04:14:32;90708.41;;;8.65;58.01
69909;BME280;57190;47.918;8.112;2024-02-16T04:16:59;90710.75;;;8.56;58.42
69909;BME280;57190;47.918;8.112;2024-02-16T04:19:28;90726.97;;;8.55;58.49
69909;BME280;57190;47.918;8.112;2024-02-16T04:21:54;90716.31;;;8.49;58.46
69909;BME280;57190;47.918;8.112;2024-02-16T04:24:20;90724.03;;;8.51;58.52
69909;BME280;57190;47.918;8.112;2024-02-16T04:26:45;90715.25;;;8.51;58.85
69909;BME280;57190;47.918;8.112;2024-02-16T04:29:11;90728.56;;;8.51;59.31
69909;BME280;57190;47.918;8.112;2024-02-16T04:31:40;90721.09;;;8.53;59.53
69909;BME280;57190;47.918;8.112;2024-02-16T04:34:07;90722.75;;;8.59;58.63
69909;BME280;57190;47.918;8.112;2024-02-16T04:36:33;90724.84;;;8.57;59.01
69909;BME280;57190;47.918;8.112;2024-02-16T04:38:58;90726.94;;;8.49;59.22
69909;BME280;57190;47.918;8.112;2024-02-16T04:41:26;90733.50;;;8.42;59.74
69909;BME280;57190;47.918;8.112;2024-02-16T04:43:51;90729.00;;;8.42;60.24
69909;BME280;57190;47.918;8.112;2024-02-16T04:46:18;90726.63;;;8.46;59.49
69909;BME280;57190;47.918;8.112;2024-02-16T04:48:43;90722.38;;;8.45;59.75
69909;BME280;57190;47.918;8.112;2024-02-16T04:51:10;90728.00;;;8.48;59.41
69909;BME280;57190;47.918;8.112;2024-02-16T04:53:36;90727.13;;;8.43;59.91
69909;BME280;57190;47.918;8.112;2024-02-16T04:56:02;90722.59;;;8.38;60.56
69909;BME280;57190;47.918;8.112;2024-02-16T04:58:28;90731.38;;;8.39;60.65
69909;BME280;57190;47.918;8.112;2024-02-16T05:00:53;90736.63;;;8.33;61.04
69909;BME280;57190;47.918;8.112;2024-02-16T05:03:19;90734.50;;;8.30;61.84
69909;BME280;57190;47.918;8.112;2024-02-16T05:05:45;90730.81;;;8.37;62.01
69909;BME280;57190;47.918;8.112;2024-02-16T05:08:11;90738.25;;;8.40;62.34
69909;BME280;57190;47.918;8.112;2024-02-16T05:10:37;90734.56;;;8.41;62.44
69909;BME280;57190;47.918;8.112;2024-02-16T05:13:03;90735.09;;;8.43;62.53
69909;BME280;57190;47.918;8.112;2024-02-16T05:15:28;90731.66;;;8.42;62.22
69909;BME280;57190;47.918;8.112;2024-02-16T05:17:54;90737.97;;;8.36;62.27
69909;BME280;57190;47.918;8.112;2024-02-16T05:20:19;90739.09;;;8.40;62.85
69909;BME280;57190;47.918;8.112;2024-02-16T05:22:47;90744.94;;;8.42;62.48
69909;BME280;57190;47.918;8.112;2024-02-16T05:25:22;90743.69;;;8.50;62.73
69909;BME280;57190;47.918;8.112;2024-02-16T05:27:53;90742.41;;;8.58;62.59
69909;BME280;57190;47.918;8.112;2024-02-16T05:30:20;90747.47;;;8.59;62.55
69909;BME280;57190;47.918;8.112;2024-02-16T05:32:46;90749.84;;;8.56;62.74
69909;BME280;57190;47.918;8.112;2024-02-16T05:35:11;90748.78;;;8.62;63.21
69909;BME280;57190;47.918;8.112;2024-02-16T05:37:40;90754.13;;;8.62;63.26
69909;BME280;57190;47.918;8.112;2024-02-16T05:40:09;90750.44;;;8.68;62.19
69909;BME280;57190;47.918;8.112;2024-02-16T05:42:48;90742.25;;;8.80;60.44
69909;BME280;57190;47.918;8.112;2024-02-16T05:45:14;90746.28;;;8.88;60.29
69909;BME280;57190;47.918;8.112;2024-02-16T05:47:41;90745.19;;;8.84;60.69
69909;BME280;57190;47.918;8.112;2024-02-16T05:50:07;90743.59;;;8.83;60.88
69909;BME280;57190;47.918;8.112;2024-02-16T05:52:37;90752.91;;;8.80;61.58
69909;BME280;57190;47.918;8.112;2024-02-16T05:55:03;90752.09;;;8.79;61.45
69909;BME280;57190;47.918;8.112;2024-02-16T05:57:29;90752.91;;;8.80;60.99
69909;BME280;57190;47.918;8.112;2024-02-16T05:59:55;90755.03;;;8.83;60.98
69909;BME280;57190;47.918;8.112;2024-02-16T06:02:21;90757.72;;;8.88;61.27
69909;BME280;57190;47.918;8.112;2024-02-16T06:04:46;90755.84;;;8.89;61.21
69909;BME280;57190;47.918;8.112;2024-02-16T06:07:12;90765.44;;;8.90;60.81
69909;BME280;57190;47.918;8.112;2024-02-16T06:09:37;90760.91;;;8.90;61.04
69909;BME280;57190;47.918;8.112;2024-02-16T06:12:04;90762.56;;;8.96;61.47
69909;BME280;57190;47.918;8.112;2024-02-16T06:14:31;90758.84;;;8.98;61.20
69909;BME280;57190;47.918;8.112;2024-02-16T06:16:56;90757.25;;;9.02;60.32
69909;BME280;57190;47.918;8.112;2024-02-16T06:19:22;90762.59;;;9.12;59.98
69909;BME280;57190;47.918;8.112;2024-02-16T06:21:47;90763.41;;;9.12;60.19
69909;BME280;57190;47.918;8.112;2024-02-16T06:24:13;90765.81;;;9.14;60.41
69909;BME280;57190;47.918;8.112;2024-02-16T06:26:38;90769.31;;;9.25;59.68
69909;BME280;57190;47.918;8.112;2024-02-16T06:29:03;90767.44;;;9.25;60.25
69909;BME280;57190;47.918;8.112;2024-02-16T06:31:29;90771.41;;;9.18;61.35
69909;BME280;57190;47.918;8.112;2024-02-16T06:33:54;90773.53;;;9.16;60.95
69909;BME280;57190;47.918;8.112;2024-02-16T06:36:22;90773.53;;;9.21;61.19
69909;BME280;57190;47.918;8.112;2024-02-16T06:38:47;90773.03;;;9.19;61.86
69909;BME280;57190;47.918;8.112;2024-02-16T06:41:13;90773.53;;;9.16;61.66
69909;BME280;57190;47.918;8.112;2024-02-16T06:43:38;90778.63;;;9.22;60.82
69909;BME280;57190;47.918;8.112;2024-02-16T06:46:04;90778.09;;;9.25;60.66
69909;BME280;57190;47.918;8.112;2024-02-16T06:48:30;90781.28;;;9.27;61.01
69909;BME280;57190;47.918;8.112;2024-02-16T06:50:55;90785.28;;;9.25;61.19
69909;BME280;57190;47.918;8.112;2024-02-16T06:53:21;90780.75;;;9.25;61.02
69909;BME280;57190;47.918;8.112;2024-02-16T06:55:46;90785.53;;;9.23;61.38
69909;BME280;57190;47.918;8.112;2024-02-16T06:58:12;90791.38;;;9.25;61.06
69909;BME280;57190;47.918;8.112;2024-02-16T07:00:37;90787.66;;;9.26;61.28
69909;BME280;57190;47.918;8.112;2024-02-16T07:03:03;90795.69;;;9.32;60.82
69909;BME280;57190;47.918;8.112;2024-02-16T07:05:28;90791.16;;;9.37;60.85
69909;BME280;57190;47.918;8.112;2024-02-16T07:07:56;90798.91;;;9.39;61.25
69909;BME280;57190;47.918;8.112;2024-02-16T07:10:21;90794.91;;;9.41;60.77
69909;BME280;57190;47.918;8.112;2024-02-16T07:12:47;90806.63;;;9.46;61.21
69909;BME280;57190;47.918;8.112;2024-02-16T07:15:13;90805.59;;;9.52;60.99
69909;BME280;57190;47.918;8.112;2024-02-16T07:17:38;90817.88;;;9.58;60.81
69909;BME280;57190;47.918;8.112;2024-02-16T07:20:04;90820.81;;;9.62;60.98
69909;BME280;57190;47.918;8.112;2024-02-16T07:22:31;90815.75;;;9.65;61.21
69909;BME280;57190;47.918;8.112;2024-02-16T07:24:57;90819.50;;;9.69;61.70
69909;BME280;57190;47.918;8.112;2024-02-16T07:27:25;90812.03;;;9.71;61.51
69909;BME280;57190;47.918;8.112;2024-02-16T07:29:51;90820.84;;;9.77;61.25
69909;BME280;57190;47.918;8.112;2024-02-16T07:32:16;90819.50;;;9.80;61.00
69909;BME280;57190;47.918;8.112;2024-02-16T07:34:45;90825.38;;;9.87;61.14
69909;BME280;57190;47.918;8.112;2024-02-16T07:37:11;90826.22;;;9.93;60.94
69909;BME280;57190;47.918;8.112;2024-02-16T07:39:37;90827.28;;;9.97;61.12
69909;BME280;57190;47.918;8.112;2024-02-16T07:42:03;90832.34;;;10.03;60.78
69909;BME280;57190;47.918;8.112;2024-02-16T07:44:28;90827.59;;;10.11;60.62
69909;BME280;57190;47.918;8.112;2024-02-16T07:46:54;90829.69;;;10.14;60.55
69909;BME280;57190;47.918;8.112;2024-02-16T07:49:19;90835.06;;;10.19;60.63
69909;BME280;57190;47.918;8.112;2024-02-16T07:51:44;90839.59;;;10.23;60.65
69909;BME280;57190;47.918;8.112;2024-02-16T07:54:10;90841.97;;;10.25;61.33
69909;BME280;57190;47.918;8.112;2024-02-16T07:56:35;90828.38;;;10.27;61.00
69909;BME280;57190;47.918;8.112;2024-02-16T07:59:01;90839.59;;;10.29;61.50
69909;BME280;57190;47.918;8.112;2024-02-16T08:01:26;90828.94;;;10.29;61.06
69909;BME280;57190;47.918;8.112;2024-02-16T08:03:51;90830.03;;;10.38;60.82
69909;BME280;57190;47.918;8.112;2024-02-16T08:06:18;90830.03;;;10.43;60.64
69909;BME280;57190;47.918;8.112;2024-02-16T08:08:46;90830.56;;;10.50;60.56
69909;BME280;57190;47.918;8.112;2024-02-16T08:11:15;90829.75;;;10.55;60.73
69909;BME280;57190;47.918;8.112;2024-02-16T08:13:41;90841.22;;;10.61;60.73
69909;BME280;57190;47.918;8.112;2024-02-16T08:16:06;90838.84;;;10.69;60.50
69909;BME280;57190;47.918;8.112;2024-02-16T08:18:35;90836.13;;;10.80;60.12
69909;BME280;57190;47.918;8.112;2024-02-16T08:21:01;90842.53;;;10.94;59.29
69909;BME280;57190;47.918;8.112;2024-02-16T08:23:26;90840.34;;;11.17;58.90
69909;BME280;57190;47.918;8.112;2024-02-16T08:25:52;90846.72;;;11.21;59.20
69909;BME280;57190;47.918;8.112;2024-02-16T08:28:18;90840.06;;;11.24;59.09
69909;BME280;57190;47.918;8.112;2024-02-16T08:30:43;90844.59;;;11.28;59.47
69909;BME280;57190;47.918;8.112;2024-02-16T08:33:10;90846.72;;;11.37;59.53
69909;BME280;57190;47.918;8.112;2024-02-16T08:35:35;90849.09;;;11.48;59.07
69909;BME280;57190;47.918;8.112;2024-02-16T08:38:01;90854.09;;;11.66;58.85
69909;BME280;57190;47.918;8.112;2024-02-16T08:40:26;90854.28;;;11.79;57.81
69909;BME280;57190;47.918;8.112;2024-02-16T08:42:52;90851.84;;;11.93;57.24
69909;BME280;57190;47.918;8.112;2024-02-16T08:45:17;90863.78;;;12.11;56.95
69909;BME280;57190;47.918;8.112;2024-02-16T08:47:44;90865.75;;;13.10;54.97
69909;BME280;57190;47.918;8.112;2024-02-16T08:50:09;90865.22;;;15.38;50.77
69909;BME280;57190;47.918;8.112;2024-02-16T08:52:36;90858.94;;;17.77;46.61
69909;BME280;57190;47.918;8.112;2024-02-16T08:55:02;90873.06;;;18.90;44.01
69909;BME280;57190;47.918;8.112;2024-02-16T08:57:27;90864.38;;;19.84;41.00
69909;BME280;57190;47.918;8.112;2024-02-16T08:59:53;90865.28;;;20.75;38.88
69909;BME280;57190;47.918;8.112;2024-02-16T09:02:18;90871.75;;;21.25;38.43
69909;BME280;57190;47.918;8.112;2024-02-16T09:04:45;90871.63;;;22.71;36.44
69909;BME280;57190;47.918;8.112;2024-02-16T09:07:11;90868.16;;;24.73;33.81
69909;BME280;57190;47.918;8.112;2024-02-16T09:09:37;90872.72;;;25.76;31.95
69909;BME280;57190;47.918;8.112;2024-02-16T09:12:02;90868.34;;;26.34;30.42
69909;BME280;57190;47.918;8.112;2024-02-16T09:14:27;90867.78;;;26.05;30.31
69909;BME280;57190;47.918;8.112;2024-02-16T09:16:53;90874.88;;;25.11;30.92
69909;BME280;57190;47.918;8.112;2024-02-16T09:19:18;90871.59;;;24.22;32.28
69909;BME280;57190;47.918;8.112;2024-02-16T09:21:49;90887.31;;;23.28;33.35
69909;BME280;57190;47.918;8.112;2024-02-16T09:24:19;90882.69;;;23.16;32.94
69909;BME280;57190;47.918;8.112;2024-02-16T09:26:45;90882.22;;;24.11;32.55
69909;BME280;57190;47.918;8.112;2024-02-16T09:29:13;90888.22;;;23.89;32.46
69909;BME280;57190;47.918;8.112;2024-02-16T09:31:40;90884.22;;;23.98;31.67
69909;BME280;57190;47.918;8.112;2024-02-16T09:34:06;90885.78;;;25.11;30.80
69909;BME280;57190;47.918;8.112;2024-02-16T09:36:31;90896.19;;;25.06;30.81
69909;BME280;57190;47.918;8.112;2024-02-16T09:38:57;90895.50;;;25.28;30.04
69909;BME280;57190;47.918;8.112;2024-02-16T09:41:22;90901.38;;;26.95;27.64
69909;BME280;57190;47.918;8.112;2024-02-16T09:43:48;90906.22;;;28.20;27.81
69909;BME280;57190;47.918;8.112;2024-02-16T09:46:15;90899.75;;;25.81;28.91
69909;BME280;57190;47.918;8.112;2024-02-16T09:48:43;90905.41;;;23.48;31.87
69909;BME280;57190;47.918;8.112;2024-02-16T09:51:13;90918.06;;;22.54;33.38
69909;BME280;57190;47.918;8.112;2024-02-16T09:53:39;90922.41;;;21.75;34.92
69909;BME280;57190;47.918;8.112;2024-02-16T09:56:05;90929.41;;;20.92;36.61
69909;BME280;57190;47.918;8.112;2024-02-16T09:58:34;90921.41;;;20.65;38.27
69909;BME280;57190;47.918;8.112;2024-02-16T10:00:59;90928.84;;;21.07;37.42
69909;BME280;57190;47.918;8.112;2024-02-16T10:03:27;90926.72;;;21.34;36.60
69909;BME280;57190;47.918;8.112;2024-02-16T10:06:07;90930.25;;;21.34;36.39
69909;BME280;57190;47.918;8.112;2024-02-16T10:08:34;90943.25;;;20.99;37.94
69909;BME280;57190;47.918;8.112;2024-02-16T10:11:01;90942.75;;;20.76;37.02
69909;BME280;57190;47.918;8.112;2024-02-16T10:13:27;90948.50;;;20.35;38.72
69909;BME280;57190;47.918;8.112;2024-02-16T10:16:04;90950.53;;;20.38;38.88
69909;BME280;57190;47.918;8.112;2024-02-16T10:18:29;90958.47;;;20.52;38.18
69909;BME280;57190;47.918;8.112;2024-02-16T10:20:55;90956.16;;;20.33;38.78
69909;BME280;57190;47.918;8.112;2024-02-16T10:23:20;90962.63;;;19.93;39.47
69909;BME280;57190;47.918;8.112;2024-02-16T10:25:46;90957.06;;;19.37;40.26
69909;BME280;57190;47.918;8.112;2024-02-16T10:28:12;90966.25;;;18.92;40.90
69909;BME280;57190;47.918;8.112;2024-02-16T10:30:40;90957.44;;;18.69;41.46
69909;BME280;57190;47.918;8.112;2024-02-16T10:33:11;90963.03;;;18.32;42.51
69909;BME280;57190;47.918;8.112;2024-02-16T10:35:40;90959.34;;;18.19;43.26
69909;BME280;57190;47.918;8.112;2024-02-16T10:38:07;90960.59;;;18.13;43.00
69909;BME280;57190;47.918;8.112;2024-02-16T10:40:41;90956.56;;;18.02;42.86
69909;BME280;57190;47.918;8.112;2024-02-16T10:43:09;90957.38;;;18.02;43.58
69909;BME280;57190;47.918;8.112;2024-02-16T10:45:39;90954.94;;;18.01;43.55
69909;BME280;57190;47.918;8.112;2024-02-16T10:48:06;90960.06;;;18.02;43.93
69909;BME280;57190;47.918;8.112;2024-02-16T10:50:33;90959.31;;;18.11;43.56
69909;BME280;57190;47.918;8.112;2024-02-16T10:53:04;90957.97;;;18.39;43.30
69909;BME280;57190;47.918;8.112;2024-02-16T10:55:32;90964.13;;;18.22;42.95
69909;BME280;57190;47.918;8.112;2024-02-16T10:57:57;90951.22;;;18.11;43.46
69909;BME280;57190;47.918;8.112;2024-02-16T11:00:24;90953.75;;;18.07;44.02
69909;BME280;57190;47.918;8.112;2024-02-16T11:05:43;90951.63;;;18.35;43.77
69909;BME280;57190;47.918;8.112;2024-02-16T11:08:12;90955.16;;;18.53;43.62
69909;BME280;57190;47.918;8.112;2024-02-16T11:10:38;90954.34;;;18.44;43.50
69909;BME280;57190;47.918;8.112;2024-02-16T11:13:04;90958.03;;;17.85;44.70
69909;BME280;57190;47.918;8.112;2024-02-16T11:15:34;90958.31;;;17.75;44.65
69909;BME280;57190;47.918;8.112;2024-02-16T11:18:03;90952.19;;;17.92;45.02
69909;BME280;57190;47.918;8.112;2024-02-16T11:20:36;90954.97;;;17.78;45.29
69909;BME280;57190;47.918;8.112;2024-02-16T11:23:11;90957.91;;;17.68;45.52
69909;BME280;57190;47.918;8.112;2024-02-16T11:25:37;90958.66;;;17.37;45.66
69909;BME280;57190;47.918;8.112;2024-02-16T11:28:03;90966.06;;;17.31;46.32
69909;BME280;57190;47.918;8.112;2024-02-16T11:30:32;90951.84;;;17.17;46.42
69909;BME280;57190;47.918;8.112;2024-02-16T11:32:59;90957.19;;;17.08;46.53
69909;BME280;57190;47.918;8.112;2024-02-16T11:35:25;90968.78;;;16.94;47.45
69909;BME280;57190;47.918;8.112;2024-02-16T11:37:50;90961.91;;;16.74;47.96
69909;BME280;57190;47.918;8.112;2024-02-16T11:40:17;90968.91;;;16.61;47.93
69909;BME280;57190;47.918;8.112;2024-02-16T11:42:42;90966.91;;;16.53;48.28
69909;BME280;57190;47.918;8.112;2024-02-16T11:45:11;90965.63;;;16.37;48.58
69909;BME280;57190;47.918;8.112;2024-02-16T11:47:37;90972.72;;;16.18;48.89
69909;BME280;57190;47.918;8.112;2024-02-16T11:50:07;90975.09;;;16.06;49.67
69909;BME280;57190;47.918;8.112;2024-02-16T11:52:41;90974.56;;;16.04;49.47
69909;BME280;57190;47.918;8.112;2024-02-16T11:55:10;90976.78;;;16.02;49.61
69909;BME280;57190;47.918;8.112;2024-02-16T11:57:39;90975.94;;;15.87;50.14
69909;BME280;57190;47.918;8.112;2024-02-16T12:00:05;90979.59;;;15.78;50.30
69909;BME280;57190;47.918;8.112;2024-02-16T12:02:36;90974.00;;;15.74;50.57
69909;BME280;57190;47.918;8.112;2024-02-16T12:05:02;90975.22;;;15.82;50.41
69909;BME280;57190;47.918;8.112;2024-02-16T12:07:28;90971.22;;;15.79;50.42
69909;BME280;57190;47.918;8.112;2024-02-16T12:10:00;90969.72;;;15.73;50.61
69909;BME280;57190;47.918;8.112;2024-02-16T12:12:26;90978.97;;;15.67;51.27
69909;BME280;57190;47.918;8.112;2024-02-16T12:14:54;90977.47;;;15.61;50.87
69909;BME280;57190;47.918;8.112;2024-02-16T12:17:20;90977.91;;;15.49;51.50
69909;BME280;57190;47.918;8.112;2024-02-16T12:19:46;90979.19;;;15.37;51.87
69909;BME280;57190;47.918;8.112;2024-02-16T12:22:22;90987.31;;;15.32;52.09
69909;BME280;57190;47.918;8.112;2024-02-16T12:24:49;90985.66;;;15.17;52.57
69909;BME280;57190;47.918;8.112;2024-02-16T12:27:18;90986.97;;;15.20;52.82
69909;BME280;57190;47.918;8.112;2024-02-16T12:29:43;90982.56;;;15.10;52.98
69909;BME280;57190;47.918;8.112;2024-02-16T12:32:09;90985.69;;;14.98;53.37
69909;BME280;57190;47.918;8.112;2024-02-16T12:34:37;90983.91;;;14.88;53.64
69909;BME280;57190;47.918;8.112;2024-02-16T12:37:06;90981.66;;;14.76;53.79
69909;BME280;57190;47.918;8.112;2024-02-16T12:39:36;90987.34;;;14.75;53.80
69909;BME280;57190;47.918;8.112;2024-02-16T12:42:02;90987.59;;;14.73;53.91
69909;BME280;57190;47.918;8.112;2024-02-16T12:44:28;90996.69;;;14.53;53.98
69909;BME280;57190;47.918;8.112;2024-02-16T12:46:53;90995.34;;;14.31;54.95
69909;BME280;57190;47.918;8.112;2024-02-16T12:49:19;90998.22;;;14.16;55.48
69909;BME280;57190;47.918;8.112;2024-02-16T12:51:48;90999.06;;;14.11;56.04
69909;BME280;57190;47.918;8.112;2024-02-16T12:54:14;91000.47;;;14.04;56.23
69909;BME280;57190;47.918;8.112;2024-02-16T12:56:44;90999.91;;;14.07;56.90
69909;BME280;57190;47.918;8.112;2024-02-16T12:59:10;90999.50;;;13.94;57.06
69909;BME280;57190;47.918;8.112;2024-02-16T13:01:36;91002.56;;;13.82;57.21
69909;BME280;57190;47.918;8.112;2024-02-16T13:04:02;91004.13;;;13.89;57.72
69909;BME280;57190;47.918;8.112;2024-02-16T13:06:27;90993.44;;;13.83;57.85